Time;durP1;ratioP1;P1;durP2;ratioP2;P2;SDS_P1;SDS_P2;PMS_P1;PMS_P2;Temp;Humidity;BMP_temperature;BMP_pressure;BME280_temperature;BME280_humidity;BME280_pressure;Samples;Min_cycle;Max_cycle;Signal;HPM_P1;HPM_P2
2023/12/15 00:00:57;;;;;;;15.02;9.98;;;7.00;99.90;;;;;;4139764;28;20042;-71
2023/12/15 00:02:57;;;;;;;20.15;12.18;;;6.90;99.90;;;;;;4131036;28;20065;-71
2023/12/15 00:04:58;;;;;;;15.77;10.38;;;6.90;99.90;;;;;;4132000;28;20038;-71
2023/12/15 00:06:58;;;;;;;17.80;11.32;;;7.00;99.90;;;;;;4134156;28;20050;-71
2023/12/15 00:08:59;;;;;;;17.65;10.40;;;7.00;99.90;;;;;;4138600;28;20037;-71
2023/12/15 00:11:00;;;;;;;18.30;10.93;;;7.00;99.90;;;;;;4137219;28;20058;-71
2023/12/15 00:13:00;;;;;;;18.33;11.43;;;7.00;99.90;;;;;;4132178;28;20038;-71
2023/12/15 00:15:02;;;;;;;16.67;10.68;;;7.00;99.90;;;;;;4142613;28;20125;-71
2023/12/15 00:17:03;;;;;;;18.90;9.83;;;7.00;99.90;;;;;;4134676;28;20485;-71
2023/12/15 00:19:04;;;;;;;16.00;11.13;;;7.00;99.90;;;;;;4138720;28;20264;-71
2023/12/15 00:21:05;;;;;;;17.00;10.50;;;6.90;99.90;;;;;;4141263;28;20034;-71
2023/12/15 00:23:05;;;;;;;19.63;10.38;;;7.00;99.90;;;;;;4136991;28;20061;-71
2023/12/15 00:25:06;;;;;;;15.50;9.95;;;7.00;99.90;;;;;;4131093;28;20066;-72
2023/12/15 00:27:07;;;;;;;13.38;9.10;;;7.00;99.90;;;;;;4127772;28;20106;-72
2023/12/15 00:29:07;;;;;;;19.50;10.15;;;7.00;99.90;;;;;;4134829;28;20042;-71
2023/12/15 00:31:08;;;;;;;20.77;11.85;;;7.10;99.90;;;;;;4138778;28;20041;-71
2023/12/15 00:33:08;;;;;;;18.10;10.05;;;7.10;99.90;;;;;;4141594;28;20120;-71
2023/12/15 00:35:09;;;;;;;17.88;10.30;;;7.00;99.90;;;;;;4139720;28;20038;-72
2023/12/15 00:37:10;;;;;;;15.90;9.35;;;7.10;99.90;;;;;;4140717;28;20033;-71
2023/12/15 00:39:10;;;;;;;15.65;9.43;;;7.10;99.90;;;;;;4134018;28;20485;-68
2023/12/15 00:41:11;;;;;;;16.70;9.43;;;7.10;99.90;;;;;;4134060;28;20035;-68
2023/12/15 00:43:13;;;;;;;15.95;10.23;;;7.10;99.90;;;;;;4131497;28;20482;-68
2023/12/15 00:45:14;;;;;;;14.05;9.55;;;7.10;99.90;;;;;;4132413;28;20045;-68
2023/12/15 00:47:15;;;;;;;14.77;9.13;;;7.10;99.90;;;;;;4137885;28;20490;-68
2023/12/15 00:49:15;;;;;;;14.57;8.73;;;7.20;99.90;;;;;;4132998;28;20038;-67
2023/12/15 00:51:16;;;;;;;15.13;9.20;;;7.10;99.90;;;;;;4137567;28;20478;-67
2023/12/15 00:53:17;;;;;;;15.50;9.13;;;7.10;99.90;;;;;;4135302;28;20112;-67
2023/12/15 00:55:17;;;;;;;14.00;8.50;;;7.20;99.90;;;;;;4138587;28;20049;-68
2023/12/15 00:57:18;;;;;;;13.35;8.65;;;7.20;99.90;;;;;;4135895;28;20133;-68
2023/12/15 00:59:19;;;;;;;13.57;8.10;;;7.20;99.90;;;;;;4132050;28;20077;-67
2023/12/15 01:01:19;;;;;;;12.80;8.15;;;7.20;99.90;;;;;;4139138;28;20069;-67
2023/12/15 01:03:20;;;;;;;19.48;10.45;;;7.20;99.90;;;;;;4138964;28;20030;-68
2023/12/15 01:05:20;;;;;;;14.20;9.30;;;7.20;99.90;;;;;;4132443;28;20039;-67
2023/12/15 01:07:21;;;;;;;13.10;8.88;;;7.20;99.90;;;;;;4134666;28;20046;-67
2023/12/15 01:09:22;;;;;;;18.23;9.48;;;7.20;99.90;;;;;;4136328;28;20486;-67
2023/12/15 01:11:22;;;;;;;14.93;9.30;;;7.20;99.90;;;;;;4135198;28;20510;-68
2023/12/15 01:13:23;;;;;;;15.93;9.32;;;7.20;99.90;;;;;;4137573;28;20513;-67
2023/12/15 01:15:24;;;;;;;17.95;9.88;;;7.20;99.90;;;;;;4131615;28;20446;-68
2023/12/15 01:17:25;;;;;;;16.52;9.27;;;7.20;99.90;;;;;;4138360;28;20046;-68
2023/12/15 01:19:25;;;;;;;16.92;8.45;;;7.20;99.90;;;;;;4139442;28;20100;-67
2023/12/15 01:21:26;;;;;;;17.23;8.93;;;7.20;99.90;;;;;;4137420;28;20030;-68
2023/12/15 01:23:26;;;;;;;12.90;8.27;;;7.20;99.90;;;;;;4141387;28;20132;-68
2023/12/15 01:25:27;;;;;;;15.27;9.13;;;7.20;99.90;;;;;;4141008;28;20045;-67
2023/12/15 01:27:27;;;;;;;15.48;8.27;;;7.20;99.90;;;;;;4137296;28;20487;-68
2023/12/15 01:29:28;;;;;;;11.98;7.60;;;7.20;99.90;;;;;;4137987;28;20052;-67
2023/12/15 01:31:29;;;;;;;12.82;8.70;;;7.20;99.90;;;;;;4139282;28;20100;-68
2023/12/15 01:33:30;;;;;;;12.73;7.60;;;7.30;99.90;;;;;;4133567;28;20463;-67
2023/12/15 01:35:30;;;;;;;14.82;8.80;;;7.30;99.90;;;;;;4130697;28;20070;-68
2023/12/15 01:37:31;;;;;;;14.77;8.00;;;7.30;99.90;;;;;;4139482;28;20541;-67
2023/12/15 01:39:32;;;;;;;15.10;8.45;;;7.30;99.90;;;;;;4130412;28;20069;-68
2023/12/15 01:41:32;;;;;;;13.18;8.15;;;7.30;99.90;;;;;;4139826;28;20116;-67
2023/12/15 01:43:33;;;;;;;14.13;8.40;;;7.30;99.90;;;;;;4155560;28;20037;-67
2023/12/15 01:45:34;;;;;;;12.95;7.85;;;7.30;99.90;;;;;;4133298;28;20096;-67
2023/12/15 01:47:35;;;;;;;14.52;7.95;;;7.30;99.90;;;;;;4132916;28;20045;-67
2023/12/15 01:49:36;;;;;;;14.57;8.57;;;7.30;99.90;;;;;;4136146;28;20449;-62
2023/12/15 01:51:37;;;;;;;16.80;8.48;;;7.30;99.90;;;;;;4134675;28;20033;-62
2023/12/15 01:53:37;;;;;;;14.68;7.70;;;7.30;99.90;;;;;;4135087;28;20054;-62
2023/12/15 01:55:38;;;;;;;15.25;8.15;;;7.30;99.90;;;;;;4127669;28;20030;-62
2023/12/15 01:57:39;;;;;;;14.70;8.15;;;7.30;99.90;;;;;;4126711;28;20031;-62
2023/12/15 01:59:42;;;;;;;14.90;8.32;;;7.30;99.90;;;;;;4134022;28;20084;-62
2023/12/15 02:01:43;;;;;;;12.68;7.00;;;7.30;99.90;;;;;;4128931;28;20078;-62
2023/12/15 02:03:43;;;;;;;12.48;7.65;;;7.30;99.90;;;;;;4128976;28;20041;-63
2023/12/15 02:05:44;;;;;;;14.35;7.63;;;7.30;99.90;;;;;;4135309;28;20436;-62
2023/12/15 02:07:44;;;;;;;13.73;8.20;;;7.30;99.90;;;;;;4132133;28;20477;-63
2023/12/15 02:09:45;;;;;;;11.02;7.47;;;7.40;99.90;;;;;;4129082;28;20069;-63
2023/12/15 02:11:45;;;;;;;16.60;8.40;;;7.40;99.90;;;;;;4137230;28;20203;-62
2023/12/15 02:13:46;;;;;;;14.38;8.27;;;7.40;99.90;;;;;;4136566;28;20612;-62
2023/12/15 02:15:47;;;;;;;14.38;8.25;;;7.40;99.90;;;;;;4138258;28;20411;-62
2023/12/15 02:17:47;;;;;;;14.82;7.63;;;7.40;99.90;;;;;;4141839;28;20053;-62
2023/12/15 02:19:48;;;;;;;11.38;7.50;;;7.40;99.90;;;;;;4141831;28;20406;-62
2023/12/15 02:21:48;;;;;;;13.88;7.93;;;7.40;99.90;;;;;;4141709;28;20042;-62
2023/12/15 02:23:49;;;;;;;15.13;8.40;;;7.40;99.90;;;;;;4142489;28;20433;-62
2023/12/15 02:25:49;;;;;;;14.18;7.82;;;7.40;99.90;;;;;;4133485;28;20045;-62
2023/12/15 02:27:50;;;;;;;14.73;9.13;;;7.50;99.90;;;;;;4133323;28;20030;-62
2023/12/15 02:29:51;;;;;;;15.02;8.68;;;7.40;99.90;;;;;;4137990;28;20129;-62
2023/12/15 02:31:52;;;;;;;14.32;8.18;;;7.40;99.90;;;;;;4141739;28;20061;-62
2023/12/15 02:33:53;;;;;;;14.95;8.20;;;7.40;99.90;;;;;;4134037;28;20049;-62
2023/12/15 02:35:53;;;;;;;14.45;8.10;;;7.40;99.90;;;;;;4138810;28;20030;-62
2023/12/15 02:37:54;;;;;;;13.50;7.68;;;7.30;99.90;;;;;;4135485;28;20394;-63
2023/12/15 02:39:54;;;;;;;12.20;7.07;;;7.40;99.90;;;;;;4140391;28;20041;-67
2023/12/15 02:41:55;;;;;;;11.07;7.13;;;7.40;99.90;;;;;;4135500;28;20031;-63
2023/12/15 02:43:55;;;;;;;13.93;8.48;;;7.40;99.90;;;;;;4135877;28;20037;-63
2023/12/15 02:45:56;;;;;;;15.30;8.48;;;7.40;99.90;;;;;;4133540;28;20088;-63
2023/12/15 02:47:57;;;;;;;18.90;9.43;;;7.40;99.90;;;;;;4141214;28;20077;-63
2023/12/15 02:49:57;;;;;;;15.93;8.38;;;7.50;99.90;;;;;;4139917;28;20045;-63
2023/12/15 02:51:58;;;;;;;15.23;8.45;;;7.50;99.90;;;;;;4132138;28;20121;-63
2023/12/15 02:54:00;;;;;;;13.50;8.55;;;7.50;99.90;;;;;;4138864;28;20054;-63
2023/12/15 02:56:00;;;;;;;16.50;9.27;;;7.50;99.90;;;;;;4140751;28;20057;-63
2023/12/15 02:58:01;;;;;;;16.35;9.43;;;7.50;99.90;;;;;;4139352;28;20409;-63
2023/12/15 03:00:01;;;;;;;14.88;8.25;;;7.50;99.90;;;;;;4132412;28;20034;-68
2023/12/15 03:02:02;;;;;;;12.68;8.13;;;7.50;99.90;;;;;;4138627;28;20044;-68
2023/12/15 03:04:03;;;;;;;12.52;7.57;;;7.50;99.90;;;;;;4142619;28;20041;-69
2023/12/15 03:06:03;;;;;;;11.20;7.03;;;7.50;99.90;;;;;;4134400;28;20046;-69
2023/12/15 03:08:04;;;;;;;14.02;8.55;;;7.50;99.90;;;;;;4144277;28;20038;-69
2023/12/15 03:10:05;;;;;;;18.58;9.77;;;7.50;99.90;;;;;;4143224;28;21011;-69
2023/12/15 03:12:06;;;;;;;13.57;7.88;;;7.50;99.90;;;;;;4143039;28;20026;-69
2023/12/15 03:14:06;;;;;;;14.95;9.23;;;7.50;99.90;;;;;;4138344;28;20038;-69
2023/12/15 03:16:09;;;;;;;13.70;7.90;;;7.50;99.90;;;;;;4142673;28;20032;-69
2023/12/15 03:18:09;;;;;;;13.85;7.78;;;7.60;99.90;;;;;;4149206;28;20036;-69
2023/12/15 03:20:10;;;;;;;17.30;9.82;;;7.60;99.90;;;;;;4135222;28;20112;-70
2023/12/15 03:22:10;;;;;;;14.50;8.90;;;7.50;99.90;;;;;;4135258;28;20034;-69
2023/12/15 03:24:11;;;;;;;14.25;8.63;;;7.60;99.90;;;;;;4140880;28;20180;-69
2023/12/15 03:26:12;;;;;;;16.17;8.93;;;7.60;99.90;;;;;;4144133;28;20493;-69
2023/12/15 03:28:12;;;;;;;14.82;8.50;;;7.50;99.90;;;;;;4152604;28;20037;-69
2023/12/15 03:30:13;;;;;;;15.43;8.68;;;7.60;99.90;;;;;;4141403;28;20072;-70
2023/12/15 03:32:13;;;;;;;16.25;7.95;;;7.60;99.90;;;;;;4143647;28;20046;-69
2023/12/15 03:34:14;;;;;;;13.15;8.43;;;7.60;99.90;;;;;;4136558;28;20142;-70
2023/12/15 03:36:15;;;;;;;15.98;8.40;;;7.60;99.90;;;;;;4134444;28;20034;-69
2023/12/15 03:38:15;;;;;;;14.15;8.13;;;7.60;99.90;;;;;;4144835;28;20096;-69
2023/12/15 03:40:16;;;;;;;14.20;8.52;;;7.60;99.90;;;;;;4138614;28;20046;-70
2023/12/15 03:42:16;;;;;;;12.23;8.02;;;7.60;99.90;;;;;;4137365;28;20124;-69
2023/12/15 03:44:17;;;;;;;16.67;8.75;;;7.60;99.90;;;;;;4163007;28;20447;-69
2023/12/15 03:46:18;;;;;;;14.18;8.23;;;7.60;99.90;;;;;;4145229;28;20029;-69
2023/12/15 03:48:18;;;;;;;16.60;7.85;;;7.60;99.90;;;;;;4144919;28;20034;-69
2023/12/15 03:50:19;;;;;;;13.68;8.52;;;7.60;99.90;;;;;;4132484;28;20482;-69
2023/12/15 03:52:19;;;;;;;12.35;8.15;;;7.60;99.90;;;;;;4138532;28;20055;-69
2023/12/15 03:54:20;;;;;;;15.80;7.90;;;7.60;99.90;;;;;;4135377;28;20043;-69
2023/12/15 03:56:24;;;;;;;8.98;6.50;;;7.60;99.90;;;;;;4143140;28;20100;-69
2023/12/15 03:58:25;;;;;;;14.45;8.48;;;7.70;99.90;;;;;;4142176;28;20089;-69
2023/12/15 04:00:27;;;;;;;13.48;8.55;;;7.60;99.90;;;;;;4139499;28;20483;-70
2023/12/15 04:02:28;;;;;;;;;;;7.70;99.90;;;;;;4141461;28;20112;-69
2023/12/15 04:04:29;;;;;;;13.20;7.43;;;7.70;99.90;;;;;;4140553;28;19910;-69
2023/12/15 04:06:30;;;;;;;20.33;8.60;;;7.70;99.90;;;;;;4140657;28;20125;-68
2023/12/15 04:08:30;;;;;;;9.98;7.05;;;7.70;99.90;;;;;;4143307;28;20038;-69
2023/12/15 04:10:31;;;;;;;14.27;8.13;;;7.70;99.90;;;;;;4133421;28;20065;-70
2023/12/15 04:12:31;;;;;;;11.70;7.28;;;7.70;99.90;;;;;;4137686;28;20382;-69
2023/12/15 04:14:33;;;;;;;12.65;7.38;;;7.70;99.90;;;;;;4144715;28;20069;-70
2023/12/15 04:16:33;;;;;;;14.07;7.97;;;7.80;99.90;;;;;;4141427;28;20478;-70
2023/12/15 04:21:31;;;;;;;16.10;8.65;;;7.80;99.90;;;;;;4162813;28;20172;-74
2023/12/15 04:23:32;;;;;;;11.57;7.75;;;7.70;99.90;;;;;;4149012;28;20049;-74
2023/12/15 04:27:49;;;;;;;12.93;8.02;;;7.70;99.90;;;;;;4077796;28;20103;-69
2023/12/15 04:29:50;;;;;;;12.75;7.40;;;7.80;99.90;;;;;;4129349;28;20482;-67
2023/12/15 04:31:51;;;;;;;14.43;8.93;;;7.80;99.90;;;;;;4133325;28;20038;-67
2023/12/15 04:33:52;;;;;;;13.68;7.90;;;7.80;99.90;;;;;;4126473;28;20054;-67
2023/12/15 04:35:52;;;;;;;13.07;8.40;;;7.80;99.90;;;;;;4128140;28;20046;-67
2023/12/15 04:37:53;;;;;;;12.55;8.40;;;7.80;99.90;;;;;;4160365;22;20038;-73
2023/12/15 04:39:53;;;;;;;14.98;8.15;;;7.80;99.90;;;;;;4157231;28;20029;-74
2023/12/15 04:41:54;;;;;;;13.15;8.15;;;7.80;99.90;;;;;;4146544;28;20029;-74
2023/12/15 04:43:55;;;;;;;11.77;7.90;;;7.80;99.90;;;;;;4168358;28;20037;-74
2023/12/15 04:45:56;;;;;;;16.38;8.40;;;7.80;99.90;;;;;;4158022;28;20029;-74
2023/12/15 04:47:56;;;;;;;16.17;9.35;;;7.80;99.90;;;;;;4162046;28;20029;-71
2023/12/15 04:49:57;;;;;;;15.35;9.57;;;7.80;99.90;;;;;;4137852;28;20058;-73
2023/12/15 04:51:59;;;;;;;14.00;8.88;;;7.90;99.90;;;;;;4166291;28;20040;-71
2023/12/15 04:54:00;;;;;;;14.00;8.77;;;7.90;99.90;;;;;;4141610;28;20113;-72
2023/12/15 04:56:00;;;;;;;14.52;9.18;;;7.90;99.90;;;;;;4156159;28;20921;-72
2023/12/15 04:58:02;;;;;;;16.00;9.07;;;7.80;99.90;;;;;;4150073;28;20393;-74
2023/12/15 05:00:04;;;;;;;17.90;10.32;;;7.90;99.90;;;;;;4159801;28;20038;-74
2023/12/15 05:02:04;;;;;;;14.37;9.30;;;7.90;99.90;;;;;;4166210;28;20108;-74
2023/12/15 05:04:05;;;;;;;14.52;9.07;;;7.90;99.90;;;;;;4158027;28;20688;-74
2023/12/15 05:06:06;;;;;;;15.38;9.70;;;7.90;99.90;;;;;;4144443;28;20501;-74
2023/12/15 05:08:07;;;;;;;15.52;9.18;;;7.90;99.90;;;;;;4166501;28;20145;-74
2023/12/15 05:10:08;;;;;;;15.93;10.63;;;7.90;99.90;;;;;;4167001;28;20040;-74
2023/12/15 05:12:08;;;;;;;19.08;11.90;;;7.90;99.90;;;;;;4157513;28;20030;-74
2023/12/15 05:14:09;;;;;;;18.30;10.68;;;7.90;99.90;;;;;;4159217;28;20375;-73
2023/12/15 05:16:10;;;;;;;26.50;11.90;;;7.90;99.90;;;;;;4154886;28;20379;-74
2023/12/15 05:18:10;;;;;;;16.60;10.40;;;7.90;99.90;;;;;;4153872;28;20190;-74
2023/12/15 05:20:11;;;;;;;22.08;11.00;;;7.90;99.90;;;;;;4153466;28;20091;-73
2023/12/15 05:22:12;;;;;;;18.55;10.05;;;7.90;99.90;;;;;;4157381;28;20057;-74
2023/12/15 05:24:13;;;;;;;20.65;11.57;;;7.90;99.90;;;;;;4157063;28;20113;-74
2023/12/15 05:26:13;;;;;;;23.15;12.48;;;7.90;99.90;;;;;;4155610;28;20881;-73
2023/12/15 05:28:14;;;;;;;19.38;10.95;;;7.90;99.90;;;;;;4153107;28;20375;-73
2023/12/15 05:30:14;;;;;;;19.48;11.05;;;7.90;99.90;;;;;;4157468;28;20045;-73
2023/12/15 05:32:16;;;;;;;24.23;13.07;;;7.90;99.90;;;;;;4161497;28;20048;-74
2023/12/15 05:34:17;;;;;;;23.27;12.65;;;7.90;99.90;;;;;;4155312;28;20045;-74
2023/12/15 05:36:19;;;;;;;21.58;12.20;;;8.00;99.90;;;;;;4152737;28;20132;-72
2023/12/15 05:38:19;;;;;;;21.48;12.18;;;8.00;99.90;;;;;;4155702;28;20367;-72
2023/12/15 05:40:20;;;;;;;21.08;11.73;;;7.90;99.90;;;;;;4159069;28;20037;-72
2023/12/15 05:42:20;;;;;;;26.55;13.27;;;7.90;99.90;;;;;;4162593;28;20067;-71
2023/12/15 05:44:21;;;;;;;21.88;12.25;;;7.90;99.90;;;;;;4162357;28;20449;-74
2023/12/15 05:46:22;;;;;;;26.52;13.50;;;7.90;99.90;;;;;;4162188;28;20038;-75
2023/12/15 05:48:22;;;;;;;22.50;13.15;;;8.00;99.90;;;;;;4157079;28;20522;-73
2023/12/15 05:50:23;;;;;;;23.05;12.80;;;7.90;99.90;;;;;;4160937;28;20044;-73
2023/12/15 05:52:25;;;;;;;27.35;13.73;;;8.00;99.90;;;;;;4164099;28;20037;-73
2023/12/15 05:54:25;;;;;;;25.60;12.88;;;7.90;99.90;;;;;;4159736;28;20045;-73
2023/12/15 05:56:26;;;;;;;27.02;13.98;;;8.00;99.90;;;;;;4169304;28;20425;-75
2023/12/15 05:58:27;;;;;;;23.27;13.05;;;7.90;99.90;;;;;;4160047;28;20430;-74
2023/12/15 06:00:27;;;;;;;24.88;13.63;;;7.90;99.90;;;;;;4161929;28;20084;-74
2023/12/15 06:02:28;;;;;;;27.23;14.93;;;8.00;99.90;;;;;;4162994;28;20490;-73
2023/12/15 06:04:28;;;;;;;26.65;13.35;;;8.00;99.90;;;;;;4164303;28;20384;-73
2023/12/15 06:06:29;;;;;;;26.10;13.95;;;8.00;99.90;;;;;;4164750;28;20115;-77
2023/12/15 06:08:29;;;;;;;28.67;14.38;;;8.00;99.90;;;;;;4161888;28;20046;-76
2023/12/15 06:10:30;;;;;;;23.48;12.68;;;8.00;99.90;;;;;;4166050;28;20832;-76
2023/12/15 06:12:31;;;;;;;27.10;13.13;;;8.00;99.90;;;;;;4157621;28;20498;-75
2023/12/15 06:14:32;;;;;;;25.88;14.02;;;8.00;99.90;;;;;;4156685;28;20037;-75
2023/12/15 06:16:32;;;;;;;22.77;13.13;;;8.00;99.90;;;;;;4171597;28;20064;-74
2023/12/15 06:18:33;;;;;;;25.27;13.05;;;8.10;99.90;;;;;;4164263;28;20037;-73
2023/12/15 06:20:33;;;;;;;23.77;12.32;;;8.10;99.90;;;;;;4158389;28;20045;-73
2023/12/15 06:22:34;;;;;;;25.30;13.70;;;8.10;99.90;;;;;;4166212;28;20079;-73
2023/12/15 06:24:35;;;;;;;23.42;12.18;;;8.10;99.90;;;;;;4166270;28;20116;-73
2023/12/15 06:26:35;;;;;;;29.25;14.73;;;8.10;99.90;;;;;;4155077;28;20086;-73
2023/12/15 06:28:36;;;;;;;23.38;13.23;;;8.10;99.90;;;;;;4163242;28;20037;-74
2023/12/15 06:30:36;;;;;;;24.50;13.07;;;8.20;99.90;;;;;;4142249;28;20026;-73
2023/12/15 06:32:37;;;;;;;29.13;14.05;;;8.20;99.90;;;;;;4153432;28;20045;-73
2023/12/15 06:34:42;;;;;;;26.27;13.63;;;8.20;99.90;;;;;;4164458;28;20352;-73
2023/12/15 06:36:42;;;;;;;25.45;13.80;;;8.20;99.90;;;;;;4165917;28;20052;-74
2023/12/15 06:38:44;;;;;;;25.88;14.77;;;8.20;99.90;;;;;;4151898;28;20038;-74
2023/12/15 06:40:45;;;;;;;30.85;15.60;;;8.20;99.90;;;;;;4148705;28;20060;-73
2023/12/15 06:42:45;;;;;;;27.27;14.35;;;8.20;99.90;;;;;;4142294;28;20049;-73
2023/12/15 06:44:46;;;;;;;32.65;15.27;;;8.20;99.90;;;;;;4131602;28;20044;-73
2023/12/15 06:46:47;;;;;;;27.65;15.00;;;8.20;99.90;;;;;;4138027;28;20513;-75
2023/12/15 06:48:48;;;;;;;28.23;15.00;;;8.20;99.90;;;;;;4153288;28;20045;-73
2023/12/15 06:50:48;;;;;;;25.70;13.63;;;8.20;99.90;;;;;;4146293;28;20037;-74
2023/12/15 06:52:51;;;;;;;27.70;14.88;;;8.20;99.90;;;;;;4149283;28;20461;-75
2023/12/15 06:54:51;;;;;;;26.38;14.82;;;8.20;99.90;;;;;;4125118;28;20487;-75
2023/12/15 06:56:52;;;;;;;32.03;14.88;;;8.20;99.90;;;;;;4150289;28;20040;-75
2023/12/15 06:58:52;;;;;;;29.73;15.98;;;8.20;99.90;;;;;;4149108;28;20048;-75
2023/12/15 07:00:53;;;;;;;30.90;15.63;;;8.20;99.90;;;;;;4151712;28;20390;-75
2023/12/15 07:02:54;;;;;;;26.30;14.15;;;8.20;99.90;;;;;;4147442;28;20509;-75
2023/12/15 07:04:54;;;;;;;31.73;15.88;;;8.20;99.90;;;;;;4139788;28;20506;-75
2023/12/15 07:06:55;;;;;;;29.83;15.77;;;8.30;99.90;;;;;;4150861;28;20046;-75
2023/12/15 07:08:56;;;;;;;29.83;15.15;;;8.30;99.90;;;;;;4153734;28;20042;-75
2023/12/15 07:10:56;;;;;;;29.88;15.20;;;8.30;99.90;;;;;;4149254;28;20034;-76
2023/12/15 07:12:57;;;;;;;31.50;16.13;;;8.30;99.90;;;;;;4124304;28;20522;-76
2023/12/15 07:14:57;;;;;;;32.60;15.13;;;8.30;99.90;;;;;;4154059;28;20457;-76
2023/12/15 07:16:58;;;;;;;33.92;16.38;;;8.30;99.90;;;;;;4150738;28;20048;-76
2023/12/15 07:18:58;;;;;;;32.33;15.80;;;8.30;99.90;;;;;;4149719;28;20068;-76
2023/12/15 07:20:59;;;;;;;34.75;17.92;;;8.30;99.90;;;;;;4132811;28;20056;-76
2023/12/15 07:23:00;;;;;;;40.42;18.48;;;8.30;99.90;;;;;;4131545;28;20046;-76
2023/12/15 07:25:00;;;;;;;33.40;17.20;;;8.30;99.90;;;;;;4150764;28;20084;-76
2023/12/15 07:27:01;;;;;;;37.65;18.67;;;8.30;99.90;;;;;;4145142;28;20526;-77
2023/12/15 07:29:02;;;;;;;36.60;18.42;;;8.30;99.90;;;;;;4133089;28;20038;-76
2023/12/15 07:31:02;;;;;;;34.80;17.40;;;8.30;99.90;;;;;;4150770;28;20557;-76
2023/12/15 07:33:03;;;;;;;30.17;16.77;;;8.30;99.90;;;;;;4150942;28;20445;-76
2023/12/15 07:35:05;;;;;;;31.30;15.18;;;8.30;99.90;;;;;;4149615;28;20371;-76
2023/12/15 07:37:05;;;;;;;41.00;18.77;;;8.30;99.90;;;;;;4149439;28;20033;-76
2023/12/15 07:39:07;;;;;;;34.33;17.73;;;8.30;99.90;;;;;;4150322;28;20049;-76
2023/12/15 07:41:08;;;;;;;31.60;16.88;;;8.40;99.90;;;;;;4149549;28;20151;-76
2023/12/15 07:43:09;;;;;;;33.13;15.90;;;8.40;99.90;;;;;;4151407;28;20081;-76
2023/12/15 07:45:10;;;;;;;35.50;16.88;;;8.40;99.90;;;;;;4136957;28;20029;-76
2023/12/15 07:47:11;;;;;;;40.03;17.25;;;8.40;99.90;;;;;;4151674;28;20040;-76
2023/12/15 07:49:11;;;;;;;33.03;16.42;;;8.40;99.90;;;;;;4153099;28;20425;-76
2023/12/15 07:51:16;;;;;;;35.97;17.15;;;8.40;99.90;;;;;;4148559;28;20476;-76
2023/12/15 07:53:17;;;;;;;37.63;16.85;;;8.40;99.90;;;;;;4151495;28;20632;-76
2023/12/15 07:55:18;;;;;;;29.98;15.70;;;8.40;99.90;;;;;;4146560;28;20045;-76
2023/12/15 07:57:19;;;;;;;36.22;17.85;;;8.40;99.90;;;;;;4151522;28;20951;-76
2023/12/15 07:59:19;;;;;;;35.88;16.23;;;8.40;99.90;;;;;;4152212;28;20108;-76
2023/12/15 08:01:21;;;;;;;33.63;17.42;;;8.40;99.90;;;;;;4148520;28;20112;-76
2023/12/15 08:03:21;;;;;;;42.65;19.23;;;8.50;99.90;;;;;;4146479;28;20052;-76
2023/12/15 08:05:22;;;;;;;33.08;17.10;;;8.50;99.90;;;;;;4150367;28;20116;-77
2023/12/15 08:07:23;;;;;;;30.48;15.95;;;8.50;99.90;;;;;;4150744;28;20466;-76
2023/12/15 08:09:23;;;;;;;32.15;15.15;;;8.50;99.90;;;;;;4151892;28;20042;-77
2023/12/15 08:11:24;;;;;;;35.60;16.92;;;8.50;99.90;;;;;;4149648;28;20120;-76
2023/12/15 08:13:24;;;;;;;37.80;17.60;;;8.50;99.90;;;;;;4152638;28;20042;-76
2023/12/15 08:15:25;;;;;;;35.92;16.25;;;8.50;99.90;;;;;;4130342;28;20046;-76
2023/12/15 08:17:26;;;;;;;35.78;17.55;;;8.60;99.90;;;;;;4147344;28;20053;-76
2023/12/15 08:19:29;;;;;;;38.47;17.20;;;8.60;99.90;;;;;;4148928;28;20045;-76
2023/12/15 08:21:29;;;;;;;28.27;15.52;;;8.60;99.90;;;;;;4149362;28;20509;-76
2023/12/15 08:23:30;;;;;;;32.95;15.95;;;8.60;99.90;;;;;;4150372;28;20044;-76
2023/12/15 08:25:31;;;;;;;35.25;17.60;;;8.60;99.90;;;;;;4147716;28;20044;-76
2023/12/15 08:27:31;;;;;;;34.38;17.33;;;8.60;99.90;;;;;;4152451;28;20083;-76
2023/12/15 08:29:32;;;;;;;34.60;17.42;;;8.60;99.90;;;;;;4148408;28;20045;-76
2023/12/15 08:31:32;;;;;;;28.88;15.90;;;8.70;99.90;;;;;;4154263;28;20057;-76
2023/12/15 08:33:33;;;;;;;28.08;15.05;;;8.70;99.90;;;;;;4149917;28;20040;-76
2023/12/15 08:35:34;;;;;;;34.38;16.85;;;8.70;99.90;;;;;;4151820;28;20045;-76
2023/12/15 08:37:34;;;;;;;31.40;16.15;;;8.70;99.90;;;;;;4152505;28;20522;-76
2023/12/15 08:39:35;;;;;;;40.10;18.33;;;8.70;99.90;;;;;;4149570;28;20513;-76
2023/12/15 08:41:36;;;;;;;34.80;17.50;;;8.70;99.90;;;;;;4153342;28;20316;-76
2023/12/15 08:43:37;;;;;;;37.53;17.55;;;8.70;99.90;;;;;;4150251;28;20107;-77
2023/12/15 08:45:37;;;;;;;34.85;17.80;;;8.70;99.90;;;;;;4148453;28;20030;-76
2023/12/15 08:47:38;;;;;;;37.38;16.77;;;8.70;99.90;;;;;;4151913;28;20529;-76
2023/12/15 08:49:39;;;;;;;40.22;19.48;;;8.70;99.90;;;;;;4139139;28;20041;-76
2023/12/15 08:51:39;;;;;;;36.42;17.98;;;8.70;99.90;;;;;;4146348;28;20120;-76
2023/12/15 08:53:40;;;;;;;38.42;19.08;;;8.70;99.90;;;;;;4153397;28;20060;-76
2023/12/15 08:55:41;;;;;;;35.78;17.90;;;8.70;99.90;;;;;;4149068;28;20051;-76
2023/12/15 08:57:42;;;;;;;34.03;18.15;;;8.70;99.90;;;;;;4134114;28;20026;-76
2023/12/15 08:59:43;;;;;;;34.33;16.80;;;8.70;99.90;;;;;;4151508;28;20037;-76
2023/12/15 09:01:43;;;;;;;34.17;16.98;;;8.70;99.90;;;;;;4150926;28;20549;-76
2023/12/15 09:03:44;;;;;;;37.40;17.98;;;8.80;99.90;;;;;;4148263;28;20079;-76
2023/12/15 09:05:44;;;;;;;35.55;16.42;;;8.80;99.90;;;;;;4128034;28;20030;-76
2023/12/15 09:07:45;;;;;;;35.03;17.15;;;8.80;99.90;;;;;;4149897;28;20494;-76
2023/12/15 09:09:46;;;;;;;36.00;18.20;;;8.80;99.90;;;;;;4146521;28;20923;-76
2023/12/15 09:11:46;;;;;;;45.22;19.55;;;8.80;99.90;;;;;;4150527;28;20132;-76
2023/12/15 09:13:47;;;;;;;40.00;19.17;;;8.80;99.90;;;;;;4149739;28;20044;-76
2023/12/15 09:15:47;;;;;;;46.28;20.70;;;8.90;99.90;;;;;;4145724;28;20029;-76
2023/12/15 09:17:48;;;;;;;48.35;20.45;;;8.80;99.90;;;;;;4151079;28;20116;-75
2023/12/15 09:19:48;;;;;;;47.38;21.75;;;8.90;99.90;;;;;;4151471;28;20536;-75
2023/12/15 09:21:49;;;;;;;43.58;21.17;;;8.90;99.90;;;;;;4148490;28;20033;-76
2023/12/15 09:23:50;;;;;;;45.20;20.50;;;8.80;99.90;;;;;;4130452;28;20543;-76
2023/12/15 09:25:51;;;;;;;43.90;20.50;;;8.90;99.90;;;;;;4156015;28;20071;-74
2023/12/15 09:27:52;;;;;;;42.75;19.90;;;8.90;99.90;;;;;;4165967;28;20036;-76
2023/12/15 09:29:53;;;;;;;44.92;20.38;;;8.80;99.90;;;;;;4164129;28;20029;-75
2023/12/15 09:31:53;;;;;;;44.45;22.08;;;8.80;99.90;;;;;;4160328;28;20505;-76
2023/12/15 09:33:54;;;;;;;46.40;21.13;;;8.80;99.90;;;;;;4154802;28;20472;-75
2023/12/15 09:35:56;;;;;;;46.88;22.02;;;8.90;99.90;;;;;;4153923;28;20574;-76
2023/12/15 09:37:56;;;;;;;49.40;22.40;;;8.90;99.90;;;;;;4159424;28;20478;-75
2023/12/15 09:39:57;;;;;;;46.42;21.60;;;8.90;99.90;;;;;;4151994;28;20073;-75
2023/12/15 09:41:58;;;;;;;44.00;21.27;;;8.90;99.90;;;;;;4150724;28;20406;-75
2023/12/15 09:43:59;;;;;;;44.03;21.15;;;8.90;99.90;;;;;;4151559;28;20052;-75
2023/12/15 09:46:01;;;;;;;42.70;20.73;;;8.90;99.90;;;;;;4152640;28;20045;-76
2023/12/15 09:48:06;;;;;;;45.70;20.60;;;8.90;99.90;;;;;;4154882;28;20042;-76
2023/12/15 09:50:10;;;;;;;43.15;20.88;;;8.90;99.90;;;;;;4149478;28;20042;-76
2023/12/15 09:52:13;;;;;;;39.83;19.30;;;8.90;99.90;;;;;;4153348;28;20042;-75
2023/12/15 09:54:13;;;;;;;41.40;19.33;;;9.00;99.90;;;;;;4134108;28;20076;-75
2023/12/15 09:56:15;;;;;;;42.22;20.08;;;9.00;99.90;;;;;;4153660;28;20038;-76
2023/12/15 09:58:16;;;;;;;38.42;19.83;;;9.00;99.90;;;;;;4153537;28;20140;-76
2023/12/15 10:00:16;;;;;;;43.78;20.98;;;9.00;99.90;;;;;;4149340;28;20199;-76
2023/12/15 10:02:17;;;;;;;45.50;21.65;;;9.00;99.90;;;;;;4155593;28;20422;-76
2023/12/15 10:04:18;;;;;;;48.38;21.45;;;9.00;99.90;;;;;;4136479;28;20033;-76
2023/12/15 10:06:19;;;;;;;43.92;20.90;;;9.00;99.90;;;;;;4153067;28;20529;-76
2023/12/15 10:08:24;;;;;;;39.15;20.08;;;9.00;99.90;;;;;;4150677;28;20080;-76
2023/12/15 10:10:26;;;;;;;39.47;20.35;;;9.00;99.90;;;;;;4152849;28;20488;-76
2023/12/15 10:12:30;;;;;;;37.20;19.33;;;9.00;99.90;;;;;;4155686;28;20577;-76
2023/12/15 10:14:36;;;;;;;42.15;21.13;;;9.00;99.90;;;;;;4149002;28;20065;-76
2023/12/15 10:16:38;;;;;;;43.15;21.35;;;9.10;99.90;;;;;;4133644;28;20030;-75
2023/12/15 10:18:38;;;;;;;41.97;20.23;;;9.10;99.90;;;;;;4157842;28;20093;-75
2023/12/15 10:20:40;;;;;;;43.03;19.95;;;9.10;99.90;;;;;;4151546;28;20099;-76
2023/12/15 10:22:40;;;;;;;38.55;19.55;;;9.10;99.90;;;;;;4133126;28;20619;-76
2023/12/15 10:24:41;;;;;;;44.58;20.77;;;9.10;99.90;;;;;;4151617;28;20056;-76
2023/12/15 10:26:42;;;;;;;42.22;20.30;;;9.10;99.90;;;;;;4154420;28;20049;-76
2023/12/15 10:28:42;;;;;;;40.00;19.35;;;9.10;99.90;;;;;;4156307;28;20087;-75